createdAt,value
2023-03-04T00:01:13.895Z,67.94
2023-03-04T00:06:06.010Z,68.23
2023-03-04T00:10:57.657Z,68.18
2023-03-04T00:15:49.302Z,67.73
2023-03-04T00:20:40.963Z,67.69
2023-03-04T00:25:33.602Z,67.74
2023-03-04T00:30:25.408Z,67.73
2023-03-04T00:35:17.134Z,68.93
2023-03-04T00:40:10.313Z,68.48
2023-03-04T00:45:02.022Z,68.55
2023-03-04T00:49:53.958Z,68.43
2023-03-04T00:54:46.057Z,68.49
2023-03-04T00:59:37.781Z,68.54
2023-03-04T01:04:29.596Z,68.46
2023-03-04T01:09:21.291Z,68.18
2023-03-04T01:14:13.095Z,68.03
2023-03-04T01:19:04.752Z,67.58
2023-03-04T01:23:56.484Z,67.48
2023-03-04T01:28:48.282Z,67.06
2023-03-04T01:33:40.133Z,67.05
2023-03-04T01:38:31.835Z,67.02
2023-03-04T01:43:28.290Z,66.31
2023-03-04T01:48:25.757Z,65.79
2023-03-04T01:53:22.627Z,65.39
2023-03-04T01:58:14.308Z,65.51
2023-03-04T02:03:12.473Z,65.71
2023-03-04T02:08:05.232Z,65.06
2023-03-04T02:12:57.371Z,65.62
2023-03-04T02:17:49.332Z,65.15
2023-03-04T02:22:51.625Z,65.26
2023-03-04T02:27:43.525Z,65.67
2023-03-04T02:32:35.242Z,65.06
2023-03-04T02:37:26.952Z,64.47
2023-03-04T02:42:19.380Z,65.19
2023-03-04T02:47:13.087Z,64.26
2023-03-04T02:52:18.482Z,64.55
2023-03-04T02:57:12.566Z,64.01
2023-03-04T03:02:07.788Z,63.99
2023-03-04T03:06:59.963Z,64.68
2023-03-04T03:11:52.501Z,64.91
2023-03-04T03:16:44.749Z,64.32
2023-03-04T03:21:36.641Z,64.45
2023-03-04T03:26:28.407Z,63.94
2023-03-04T03:31:20.194Z,64.83
2023-03-04T03:36:12.062Z,64.46
2023-03-04T03:41:03.873Z,64.24
2023-03-04T03:45:55.615Z,64.09
2023-03-04T03:50:47.759Z,64.45
2023-03-04T03:55:39.416Z,64.76
2023-03-04T04:00:31.429Z,64.31
2023-03-04T04:05:23.084Z,64.69
2023-03-04T04:10:15.531Z,64.83
2023-03-04T04:15:08.013Z,64.84
2023-03-04T04:19:59.689Z,64.94
2023-03-04T04:24:51.415Z,64.86
2023-03-04T04:29:43.069Z,64.73
2023-03-04T04:34:35.177Z,64.94
2023-03-04T04:39:26.915Z,65.80
2023-03-04T04:44:18.548Z,65.15
2023-03-04T04:49:10.720Z,65.41
2023-03-04T04:54:03.098Z,65.16
2023-03-04T04:58:58.264Z,65.56
2023-03-04T05:03:50.660Z,65.36
2023-03-04T05:08:42.931Z,65.38
2023-03-04T05:13:34.956Z,65.16
2023-03-04T05:18:27.804Z,65.21
2023-03-04T05:23:20.041Z,65.41
2023-03-04T05:28:12.556Z,65.77
2023-03-04T05:33:04.285Z,65.93
2023-03-04T05:37:55.973Z,65.86
2023-03-04T05:42:47.633Z,65.81
2023-03-04T05:47:39.328Z,65.32
2023-03-04T05:52:31.131Z,65.31
2023-03-04T05:57:22.788Z,65.23
2023-03-04T06:02:14.409Z,64.72
2023-03-04T06:07:06.125Z,65.06
2023-03-04T06:11:57.717Z,65.37
2023-03-04T06:16:49.421Z,65.01
2023-03-04T06:21:41.097Z,65.82
2023-03-04T06:26:33.711Z,65.91
2023-03-04T06:31:25.518Z,65.53
2023-03-04T06:36:17.447Z,65.74
2023-03-04T06:41:13.180Z,65.59
2023-03-04T06:46:07.730Z,65.38
2023-03-04T06:51:04.386Z,65.34
2023-03-04T06:55:56.793Z,65.16
2023-03-04T07:00:48.500Z,66.07
2023-03-04T07:05:40.370Z,66.08
2023-03-04T07:10:32.033Z,66.16
2023-03-04T07:15:23.674Z,65.38
2023-03-04T07:20:15.553Z,66.15
2023-03-04T07:25:07.671Z,65.78
2023-03-04T07:29:59.499Z,64.62
2023-03-04T07:34:51.522Z,65.32
2023-03-04T07:39:43.279Z,65.72
2023-03-04T07:44:35.739Z,64.84
2023-03-04T07:49:27.460Z,64.19
2023-03-04T07:54:20.250Z,64.52
2023-03-04T07:59:11.911Z,63.41
2023-03-04T08:04:06.003Z,63.77
2023-03-04T08:09:06.518Z,63.83
2023-03-04T08:13:58.808Z,64.06
2023-03-04T08:18:54.125Z,64.17
2023-03-04T08:23:46.642Z,64.60
2023-03-04T08:28:38.821Z,64.93
2023-03-04T08:33:31.879Z,64.74
2023-03-04T08:38:23.774Z,64.61
2023-03-04T08:43:15.379Z,64.27
2023-03-04T08:48:07.201Z,64.21
2023-03-04T08:52:59.265Z,64.71
2023-03-04T08:57:50.979Z,64.93
2023-03-04T09:02:42.602Z,65.09
2023-03-04T09:07:34.341Z,63.91
2023-03-04T09:12:26.207Z,62.93
2023-03-04T09:17:17.889Z,62.51
2023-03-04T09:22:09.500Z,60.66
2023-03-04T09:27:01.174Z,61.12
2023-03-04T09:31:52.772Z,60.58
2023-03-04T09:36:44.461Z,60.09
2023-03-04T09:41:44.191Z,59.62
2023-03-04T09:46:39.795Z,59.46
2023-03-04T09:51:40.821Z,58.40
2023-03-04T09:56:36.593Z,58.01
2023-03-04T10:01:39.957Z,58.99
2023-03-04T10:06:32.495Z,58.52
2023-03-04T10:11:40.851Z,59.32
2023-03-04T10:16:42.757Z,58.80
2023-03-04T10:21:45.054Z,58.50
2023-03-04T10:26:37.671Z,58.77
2023-03-04T10:31:38.318Z,60.45
2023-03-04T10:36:29.958Z,63.04
2023-03-04T10:41:26.143Z,63.36
2023-03-04T10:46:20.843Z,60.30
2023-03-04T10:51:23.580Z,59.51
2023-03-04T10:56:45.512Z,59.35
2023-03-04T11:01:37.637Z,59.23
2023-03-04T11:06:31.803Z,60.36
2023-03-04T11:11:34.748Z,60.31
2023-03-04T11:16:32.492Z,58.80
2023-03-04T11:21:26.916Z,57.58
2023-03-04T11:26:26.280Z,56.04
2023-03-04T11:31:29.521Z,57.08
2023-03-04T11:36:46.120Z,57.28
2023-03-04T11:41:51.206Z,56.71
2023-03-04T11:47:03.425Z,57.32
2023-03-04T11:52:13.457Z,57.80
2023-03-04T11:57:18.538Z,58.92
2023-03-04T12:02:18.019Z,59.29
2023-03-04T12:07:36.042Z,59.67
2023-03-04T12:12:27.622Z,59.75
2023-03-04T12:17:47.047Z,58.51
2023-03-04T12:22:49.832Z,57.70
2023-03-04T12:28:03.246Z,55.27
2023-03-04T12:33:23.168Z,54.05
2023-03-04T12:38:46.054Z,53.82
2023-03-04T12:43:43.353Z,53.66
2023-03-04T12:49:20.015Z,54.94
2023-03-04T12:54:31.352Z,54.68
2023-03-04T12:59:26.512Z,55.04
2023-03-04T13:04:40.577Z,54.86
2023-03-04T13:09:43.499Z,55.16
2023-03-04T13:14:35.382Z,56.31
2023-03-04T13:19:42.449Z,56.32
2023-03-04T13:24:50.968Z,55.91
2023-03-04T13:29:42.640Z,55.31
2023-03-04T13:34:46.616Z,54.90
2023-03-04T13:39:38.288Z,54.63
2023-03-04T13:44:58.198Z,55.76
2023-03-04T13:49:49.885Z,56.88
2023-03-04T13:54:41.732Z,57.68
2023-03-04T13:59:44.859Z,57.80
2023-03-04T14:04:42.155Z,58.36
2023-03-04T14:09:35.316Z,59.02
2023-03-04T14:14:30.677Z,59.26
2023-03-04T14:19:27.927Z,60.14
2023-03-04T14:24:21.070Z,60.37
2023-03-04T14:29:29.537Z,60.34
2023-03-04T14:34:29.930Z,61.88
2023-03-04T14:39:24.806Z,62.16
2023-03-04T14:44:22.370Z,61.25
2023-03-04T14:49:15.281Z,60.96
2023-03-04T14:54:08.304Z,60.26
2023-03-04T14:59:00.081Z,60.71
2023-03-04T15:03:55.760Z,61.59
2023-03-04T15:08:55.572Z,62.29
2023-03-04T15:13:50.388Z,62.82
2023-03-04T15:19:19.019Z,63.97
2023-03-04T15:24:13.543Z,64.31
2023-03-04T15:29:23.294Z,63.63
2023-03-04T15:34:17.652Z,63.17
2023-03-04T15:39:13.366Z,63.44
2023-03-04T15:44:05.152Z,65.79
2023-03-04T15:48:56.869Z,65.26
2023-03-04T15:53:53.871Z,66.21
2023-03-04T15:58:53.755Z,66.17
2023-03-04T16:03:45.397Z,66.27
2023-03-04T16:08:37.320Z,67.09
2023-03-04T16:13:29.052Z,68.24
2023-03-04T16:18:21.721Z,68.45
2023-03-04T16:23:17.122Z,68.61
2023-03-04T16:28:10.907Z,68.46
2023-03-04T16:33:02.658Z,69.10
2023-03-04T16:37:54.893Z,69.16
2023-03-04T16:42:46.561Z,69.30
2023-03-04T16:47:38.172Z,71.23
2023-03-04T16:52:31.946Z,72.34
2023-03-04T16:57:24.010Z,73.13
2023-03-04T17:02:17.789Z,74.00
2023-03-04T17:07:09.902Z,74.17
2023-03-04T17:12:01.541Z,74.02
2023-03-04T17:16:53.605Z,75.87
2023-03-04T17:21:45.245Z,75.91
2023-03-04T17:26:37.127Z,76.06
2023-03-04T17:31:28.876Z,76.15
2023-03-04T17:36:20.767Z,75.22
2023-03-04T17:41:17.320Z,74.89
2023-03-04T17:46:12.302Z,75.03
2023-03-04T17:51:04.445Z,74.97
2023-03-04T17:56:00.267Z,74.95
2023-03-04T18:00:53.624Z,74.15
2023-03-04T18:05:45.310Z,73.79
2023-03-04T18:10:37.167Z,73.21
2023-03-04T18:15:28.910Z,72.62
2023-03-04T18:20:20.696Z,71.82
2023-03-04T18:25:13.056Z,71.33
2023-03-04T18:30:05.944Z,70.96
2023-03-04T18:34:57.946Z,70.18
2023-03-04T18:39:49.991Z,70.11
2023-03-04T18:44:42.745Z,70.09
2023-03-04T18:49:34.505Z,69.25
2023-03-04T18:54:26.483Z,69.20
2023-03-04T18:59:22.418Z,69.64
2023-03-04T19:04:16.172Z,68.74
2023-03-04T19:09:08.540Z,68.54
2023-03-04T19:14:00.363Z,68.48
2023-03-04T19:18:52.413Z,68.34
2023-03-04T19:23:44.570Z,68.45
2023-03-04T19:28:36.694Z,68.68
2023-03-04T19:33:28.668Z,68.68
2023-03-04T19:38:20.419Z,68.36
2023-03-04T19:43:12.968Z,68.54
2023-03-04T19:48:05.011Z,67.19
2023-03-04T19:52:56.804Z,65.52
2023-03-04T19:57:48.541Z,67.04
2023-03-04T20:02:40.351Z,66.09
2023-03-04T20:07:32.449Z,65.27
2023-03-04T20:12:24.175Z,65.39
2023-03-04T20:17:16.064Z,64.49
2023-03-04T20:22:08.990Z,64.82
2023-03-04T20:27:00.878Z,65.56
2023-03-04T20:31:52.964Z,65.29
2023-03-04T20:36:44.619Z,64.46
2023-03-04T20:41:37.057Z,65.26
2023-03-04T20:46:34.931Z,65.12
2023-03-04T20:51:31.555Z,64.97
2023-03-04T20:56:23.770Z,65.18
2023-03-04T21:01:15.953Z,64.90
2023-03-04T21:06:10.485Z,65.36
2023-03-04T21:11:03.210Z,64.85
2023-03-04T21:15:54.874Z,65.05
2023-03-04T21:20:48.471Z,62.51
2023-03-04T21:25:41.450Z,64.00
2023-03-04T21:30:33.423Z,65.00
2023-03-04T21:35:25.278Z,65.24
2023-03-04T21:40:17.061Z,65.41
2023-03-04T21:45:10.899Z,65.59
2023-03-04T21:50:02.618Z,66.05
2023-03-04T21:54:55.963Z,66.21
2023-03-04T21:59:49.140Z,66.13
2023-03-04T22:04:41.283Z,66.04
2023-03-04T22:09:33.831Z,65.66
2023-03-04T22:14:29.317Z,65.54
2023-03-04T22:19:21.329Z,65.56
2023-03-04T22:24:13.107Z,65.60
2023-03-04T22:29:05.526Z,65.77
2023-03-04T22:34:03.676Z,66.84
2023-03-04T22:38:55.898Z,66.84
2023-03-04T22:43:48.649Z,67.42
2023-03-04T22:48:40.598Z,67.71
2023-03-04T22:53:32.226Z,67.73
2023-03-04T22:58:23.998Z,67.66
2023-03-04T23:03:15.849Z,68.09
2023-03-04T23:08:08.066Z,67.81
2023-03-04T23:12:59.956Z,68.83
2023-03-04T23:17:51.633Z,68.17
2023-03-04T23:22:44.507Z,67.83
2023-03-04T23:27:37.608Z,68.52
2023-03-04T23:32:29.282Z,68.69
2023-03-04T23:37:23.530Z,68.80
2023-03-04T23:42:15.848Z,69.00
2023-03-04T23:47:07.660Z,69.08
2023-03-04T23:52:00.024Z,69.11
2023-03-04T23:56:52.656Z,69.27
